sensor_id;sensor_type;location;lat;lon;timestamp;P1;durP1;ratioP1;P2;durP2;ratioP2
42246;SDS011;27913;42.722;23.268;2022-10-31T00:00:45;6.85;;;2.47;;
42246;SDS011;27913;42.722;23.268;2022-10-31T00:03:12;6.28;;;2.47;;
42246;SDS011;27913;42.722;23.268;2022-10-31T00:05:44;8.93;;;2.50;;
42246;SDS011;27913;42.722;23.268;2022-10-31T00:08:11;5.53;;;2.40;;
42246;SDS011;27913;42.722;23.268;2022-10-31T00:10:37;8.70;;;2.65;;
42246;SDS011;27913;42.722;23.268;2022-10-31T00:13:03;8.10;;;2.60;;
42246;SDS011;27913;42.722;23.268;2022-10-31T00:15:29;5.80;;;2.67;;
42246;SDS011;27913;42.722;23.268;2022-10-31T00:17:55;6.55;;;2.38;;
42246;SDS011;27913;42.722;23.268;2022-10-31T00:20:20;6.75;;;2.63;;
42246;SDS011;27913;42.722;23.268;2022-10-31T00:22:45;7.72;;;2.45;;
42246;SDS011;27913;42.722;23.268;2022-10-31T00:25:11;6.07;;;2.45;;
42246;SDS011;27913;42.722;23.268;2022-10-31T00:27:36;6.22;;;2.17;;
42246;SDS011;27913;42.722;23.268;2022-10-31T00:30:02;7.47;;;2.38;;
42246;SDS011;27913;42.722;23.268;2022-10-31T00:32:31;7.18;;;2.55;;
42246;SDS011;27913;42.722;23.268;2022-10-31T00:34:56;8.43;;;2.60;;
42246;SDS011;27913;42.722;23.268;2022-10-31T00:37:21;6.50;;;2.50;;
42246;SDS011;27913;42.722;23.268;2022-10-31T00:39:47;9.52;;;2.20;;
42246;SDS011;27913;42.722;23.268;2022-10-31T00:42:14;7.68;;;2.40;;
42246;SDS011;27913;42.722;23.268;2022-10-31T00:44:40;9.65;;;2.70;;
42246;SDS011;27913;42.722;23.268;2022-10-31T00:47:05;5.68;;;2.35;;
42246;SDS011;27913;42.722;23.268;2022-10-31T00:49:31;8.68;;;3.00;;
42246;SDS011;27913;42.722;23.268;2022-10-31T00:51:56;8.52;;;2.58;;
42246;SDS011;27913;42.722;23.268;2022-10-31T00:54:22;5.10;;;2.17;;
42246;SDS011;27913;42.722;23.268;2022-10-31T00:56:47;7.88;;;2.28;;
42246;SDS011;27913;42.722;23.268;2022-10-31T00:59:13;7.32;;;2.42;;
42246;SDS011;27913;42.722;23.268;2022-10-31T01:04:13;7.47;;;2.38;;
42246;SDS011;27913;42.722;23.268;2022-10-31T01:06:40;7.10;;;1.80;;
42246;SDS011;27913;42.722;23.268;2022-10-31T01:09:06;8.45;;;2.45;;
42246;SDS011;27913;42.722;23.268;2022-10-31T01:11:31;5.03;;;2.10;;
42246;SDS011;27913;42.722;23.268;2022-10-31T01:13:57;6.70;;;1.85;;
42246;SDS011;27913;42.722;23.268;2022-10-31T01:16:23;5.97;;;2.40;;
42246;SDS011;27913;42.722;23.268;2022-10-31T01:18:52;6.30;;;2.40;;
42246;SDS011;27913;42.722;23.268;2022-10-31T01:21:19;9.95;;;2.33;;
42246;SDS011;27913;42.722;23.268;2022-10-31T01:23:46;7.45;;;2.90;;
42246;SDS011;27913;42.722;23.268;2022-10-31T01:26:16;8.55;;;2.47;;
42246;SDS011;27913;42.722;23.268;2022-10-31T01:31:23;7.53;;;2.83;;
42246;SDS011;27913;42.722;23.268;2022-10-31T01:33:49;8.20;;;2.80;;
42246;SDS011;27913;42.722;23.268;2022-10-31T01:36:19;6.72;;;2.70;;
42246;SDS011;27913;42.722;23.268;2022-10-31T01:38:47;10.07;;;3.15;;
42246;SDS011;27913;42.722;23.268;2022-10-31T01:41:15;7.45;;;2.70;;
42246;SDS011;27913;42.722;23.268;2022-10-31T01:43:53;7.20;;;2.80;;
42246;SDS011;27913;42.722;23.268;2022-10-31T01:46:39;8.98;;;2.80;;
42246;SDS011;27913;42.722;23.268;2022-10-31T01:52:25;8.35;;;2.90;;
42246;SDS011;27913;42.722;23.268;2022-10-31T01:54:53;8.00;;;2.90;;
42246;SDS011;27913;42.722;23.268;2022-10-31T01:57:23;7.75;;;3.10;;
42246;SDS011;27913;42.722;23.268;2022-10-31T01:59:51;8.50;;;2.45;;
42246;SDS011;27913;42.722;23.268;2022-10-31T02:02:21;9.20;;;3.13;;
42246;SDS011;27913;42.722;23.268;2022-10-31T02:04:48;7.82;;;3.05;;
42246;SDS011;27913;42.722;23.268;2022-10-31T02:07:14;7.38;;;3.00;;
42246;SDS011;27913;42.722;23.268;2022-10-31T02:09:46;9.70;;;3.10;;
42246;SDS011;27913;42.722;23.268;2022-10-31T02:12:12;6.28;;;2.78;;
42246;SDS011;27913;42.722;23.268;2022-10-31T02:14:38;8.32;;;3.13;;
42246;SDS011;27913;42.722;23.268;2022-10-31T02:17:05;7.95;;;2.67;;
42246;SDS011;27913;42.722;23.268;2022-10-31T02:30:58;7.07;;;2.60;;
42246;SDS011;27913;42.722;23.268;2022-10-31T02:36:14;8.00;;;3.10;;
42246;SDS011;27913;42.722;23.268;2022-10-31T02:38:51;7.88;;;2.97;;
42246;SDS011;27913;42.722;23.268;2022-10-31T02:41:27;7.30;;;2.67;;
42246;SDS011;27913;42.722;23.268;2022-10-31T02:44:20;12.20;;;3.28;;
42246;SDS011;27913;42.722;23.268;2022-10-31T02:49:41;9.38;;;3.55;;
42246;SDS011;27913;42.722;23.268;2022-10-31T02:52:17;6.95;;;3.13;;
42246;SDS011;27913;42.722;23.268;2022-10-31T02:54:44;8.68;;;3.13;;
42246;SDS011;27913;42.722;23.268;2022-10-31T02:57:11;8.27;;;2.97;;
42246;SDS011;27913;42.722;23.268;2022-10-31T02:59:40;14.73;;;6.00;;
42246;SDS011;27913;42.722;23.268;2022-10-31T03:02:25;11.27;;;4.88;;
42246;SDS011;27913;42.722;23.268;2022-10-31T03:04:58;9.90;;;3.83;;
42246;SDS011;27913;42.722;23.268;2022-10-31T03:07:38;9.00;;;3.72;;
42246;SDS011;27913;42.722;23.268;2022-10-31T03:13:08;8.38;;;3.40;;
42246;SDS011;27913;42.722;23.268;2022-10-31T03:15:38;7.60;;;2.97;;
42246;SDS011;27913;42.722;23.268;2022-10-31T03:18:10;6.50;;;2.80;;
42246;SDS011;27913;42.722;23.268;2022-10-31T03:20:48;7.80;;;3.20;;
42246;SDS011;27913;42.722;23.268;2022-10-31T03:23:19;8.45;;;3.35;;
42246;SDS011;27913;42.722;23.268;2022-10-31T03:25:48;7.45;;;3.47;;
42246;SDS011;27913;42.722;23.268;2022-10-31T03:28:16;8.60;;;3.50;;
42246;SDS011;27913;42.722;23.268;2022-10-31T03:30:45;11.02;;;3.55;;
42246;SDS011;27913;42.722;23.268;2022-10-31T03:33:15;6.90;;;3.38;;
42246;SDS011;27913;42.722;23.268;2022-10-31T03:35:46;8.48;;;4.00;;
42246;SDS011;27913;42.722;23.268;2022-10-31T03:38:15;11.98;;;4.88;;
42246;SDS011;27913;42.722;23.268;2022-10-31T03:40:42;12.55;;;4.70;;
42246;SDS011;27913;42.722;23.268;2022-10-31T03:43:13;15.30;;;5.13;;
42246;SDS011;27913;42.722;23.268;2022-10-31T03:45:45;13.90;;;4.22;;
42246;SDS011;27913;42.722;23.268;2022-10-31T03:48:16;12.20;;;5.82;;
42246;SDS011;27913;42.722;23.268;2022-10-31T03:53:52;10.32;;;4.50;;
42246;SDS011;27913;42.722;23.268;2022-10-31T03:59:24;10.00;;;4.28;;
42246;SDS011;27913;42.722;23.268;2022-10-31T04:01:57;11.18;;;4.32;;
42246;SDS011;27913;42.722;23.268;2022-10-31T04:04:25;13.23;;;4.53;;
42246;SDS011;27913;42.722;23.268;2022-10-31T04:06:52;9.88;;;4.13;;
42246;SDS011;27913;42.722;23.268;2022-10-31T04:09:20;9.07;;;4.25;;
42246;SDS011;27913;42.722;23.268;2022-10-31T04:11:51;9.93;;;4.43;;
42246;SDS011;27913;42.722;23.268;2022-10-31T04:14:19;12.00;;;4.03;;
42246;SDS011;27913;42.722;23.268;2022-10-31T04:16:47;9.00;;;4.03;;
42246;SDS011;27913;42.722;23.268;2022-10-31T04:19:12;13.45;;;4.15;;
42246;SDS011;27913;42.722;23.268;2022-10-31T04:21:39;11.98;;;5.05;;
42246;SDS011;27913;42.722;23.268;2022-10-31T04:24:08;14.38;;;4.50;;
42246;SDS011;27913;42.722;23.268;2022-10-31T04:26:34;13.00;;;4.05;;
42246;SDS011;27913;42.722;23.268;2022-10-31T04:28:59;14.50;;;4.82;;
42246;SDS011;27913;42.722;23.268;2022-10-31T04:31:25;9.32;;;4.13;;
42246;SDS011;27913;42.722;23.268;2022-10-31T04:33:50;11.55;;;5.07;;
42246;SDS011;27913;42.722;23.268;2022-10-31T04:36:16;10.23;;;4.55;;
42246;SDS011;27913;42.722;23.268;2022-10-31T04:38:41;11.18;;;4.55;;
42246;SDS011;27913;42.722;23.268;2022-10-31T04:41:07;11.68;;;4.68;;
42246;SDS011;27913;42.722;23.268;2022-10-31T04:43:32;9.73;;;4.10;;
42246;SDS011;27913;42.722;23.268;2022-10-31T04:45:58;12.77;;;5.25;;
42246;SDS011;27913;42.722;23.268;2022-10-31T04:48:24;11.20;;;4.50;;
42246;SDS011;27913;42.722;23.268;2022-10-31T04:50:50;10.27;;;4.40;;
42246;SDS011;27913;42.722;23.268;2022-10-31T04:53:15;11.68;;;4.47;;
42246;SDS011;27913;42.722;23.268;2022-10-31T04:55:41;13.18;;;5.50;;
42246;SDS011;27913;42.722;23.268;2022-10-31T04:58:06;24.73;;;9.60;;
42246;SDS011;27913;42.722;23.268;2022-10-31T05:00:32;21.88;;;9.45;;
42246;SDS011;27913;42.722;23.268;2022-10-31T05:02:57;21.23;;;9.50;;
42246;SDS011;27913;42.722;23.268;2022-10-31T05:05:25;17.33;;;6.97;;
42246;SDS011;27913;42.722;23.268;2022-10-31T05:07:53;20.75;;;7.75;;
42246;SDS011;27913;42.722;23.268;2022-10-31T05:10:20;17.05;;;6.85;;
42246;SDS011;27913;42.722;23.268;2022-10-31T05:12:48;14.75;;;6.35;;
42246;SDS011;27913;42.722;23.268;2022-10-31T05:15:15;18.83;;;7.45;;
42246;SDS011;27913;42.722;23.268;2022-10-31T05:17:42;15.15;;;6.68;;
42246;SDS011;27913;42.722;23.268;2022-10-31T05:20:08;19.20;;;7.15;;
42246;SDS011;27913;42.722;23.268;2022-10-31T05:22:35;14.30;;;6.60;;
42246;SDS011;27913;42.722;23.268;2022-10-31T05:25:00;24.10;;;9.90;;
42246;SDS011;27913;42.722;23.268;2022-10-31T05:27:26;21.83;;;11.88;;
42246;SDS011;27913;42.722;23.268;2022-10-31T05:29:51;20.45;;;8.88;;
42246;SDS011;27913;42.722;23.268;2022-10-31T05:32:17;20.77;;;8.65;;
42246;SDS011;27913;42.722;23.268;2022-10-31T05:34:42;17.52;;;8.13;;
42246;SDS011;27913;42.722;23.268;2022-10-31T05:37:08;20.42;;;7.78;;
42246;SDS011;27913;42.722;23.268;2022-10-31T05:39:33;22.48;;;10.02;;
42246;SDS011;27913;42.722;23.268;2022-10-31T05:41:59;36.97;;;14.00;;
42246;SDS011;27913;42.722;23.268;2022-10-31T05:44:24;25.67;;;10.02;;
42246;SDS011;27913;42.722;23.268;2022-10-31T05:46:50;20.95;;;9.38;;
42246;SDS011;27913;42.722;23.268;2022-10-31T05:49:15;24.20;;;8.05;;
42246;SDS011;27913;42.722;23.268;2022-10-31T05:51:42;21.70;;;7.32;;
42246;SDS011;27913;42.722;23.268;2022-10-31T05:54:08;16.55;;;8.18;;
42246;SDS011;27913;42.722;23.268;2022-10-31T05:56:33;23.75;;;10.70;;
42246;SDS011;27913;42.722;23.268;2022-10-31T05:58:58;26.58;;;11.95;;
42246;SDS011;27913;42.722;23.268;2022-10-31T06:01:24;29.50;;;11.45;;
42246;SDS011;27913;42.722;23.268;2022-10-31T06:03:50;17.75;;;8.25;;
42246;SDS011;27913;42.722;23.268;2022-10-31T06:06:15;22.00;;;9.73;;
42246;SDS011;27913;42.722;23.268;2022-10-31T06:08:41;26.80;;;13.43;;
42246;SDS011;27913;42.722;23.268;2022-10-31T06:11:06;25.63;;;11.65;;
42246;SDS011;27913;42.722;23.268;2022-10-31T06:13:32;27.08;;;11.88;;
42246;SDS011;27913;42.722;23.268;2022-10-31T06:15:57;30.25;;;12.52;;
42246;SDS011;27913;42.722;23.268;2022-10-31T06:18:23;33.10;;;13.73;;
42246;SDS011;27913;42.722;23.268;2022-10-31T06:20:48;33.50;;;11.77;;
42246;SDS011;27913;42.722;23.268;2022-10-31T06:23:15;25.58;;;8.77;;
42246;SDS011;27913;42.722;23.268;2022-10-31T06:25:40;15.98;;;7.60;;
42246;SDS011;27913;42.722;23.268;2022-10-31T06:28:05;19.88;;;8.93;;
42246;SDS011;27913;42.722;23.268;2022-10-31T06:30:31;18.50;;;8.02;;
42246;SDS011;27913;42.722;23.268;2022-10-31T06:33:03;17.77;;;8.35;;
42246;SDS011;27913;42.722;23.268;2022-10-31T06:35:29;19.38;;;7.88;;
42246;SDS011;27913;42.722;23.268;2022-10-31T06:37:55;14.80;;;7.63;;
42246;SDS011;27913;42.722;23.268;2022-10-31T06:40:20;15.65;;;7.90;;
42246;SDS011;27913;42.722;23.268;2022-10-31T06:42:47;20.55;;;7.80;;
42246;SDS011;27913;42.722;23.268;2022-10-31T06:45:14;15.52;;;7.22;;
42246;SDS011;27913;42.722;23.268;2022-10-31T06:47:39;18.98;;;8.38;;
42246;SDS011;27913;42.722;23.268;2022-10-31T06:50:05;16.55;;;8.25;;
42246;SDS011;27913;42.722;23.268;2022-10-31T06:52:30;17.50;;;8.07;;
42246;SDS011;27913;42.722;23.268;2022-10-31T06:54:56;16.70;;;7.43;;
42246;SDS011;27913;42.722;23.268;2022-10-31T06:57:21;16.65;;;8.25;;
42246;SDS011;27913;42.722;23.268;2022-10-31T06:59:47;16.65;;;8.25;;
42246;SDS011;27913;42.722;23.268;2022-10-31T07:02:12;17.88;;;7.72;;
42246;SDS011;27913;42.722;23.268;2022-10-31T07:04:38;15.20;;;8.82;;
42246;SDS011;27913;42.722;23.268;2022-10-31T07:07:03;18.70;;;7.95;;
42246;SDS011;27913;42.722;23.268;2022-10-31T07:09:29;19.60;;;8.30;;
42246;SDS011;27913;42.722;23.268;2022-10-31T07:11:54;15.43;;;8.00;;
42246;SDS011;27913;42.722;23.268;2022-10-31T07:14:20;19.40;;;8.40;;
42246;SDS011;27913;42.722;23.268;2022-10-31T07:16:49;19.63;;;9.75;;
42246;SDS011;27913;42.722;23.268;2022-10-31T07:19:15;19.48;;;8.55;;
42246;SDS011;27913;42.722;23.268;2022-10-31T07:21:41;17.15;;;8.27;;
42246;SDS011;27913;42.722;23.268;2022-10-31T07:24:06;16.63;;;8.32;;
42246;SDS011;27913;42.722;23.268;2022-10-31T07:26:32;18.02;;;8.55;;
42246;SDS011;27913;42.722;23.268;2022-10-31T07:28:57;17.55;;;7.85;;
42246;SDS011;27913;42.722;23.268;2022-10-31T07:31:24;22.60;;;8.48;;
42246;SDS011;27913;42.722;23.268;2022-10-31T07:33:49;22.92;;;8.32;;
42246;SDS011;27913;42.722;23.268;2022-10-31T07:36:16;17.38;;;8.70;;
42246;SDS011;27913;42.722;23.268;2022-10-31T07:38:41;18.67;;;9.23;;
42246;SDS011;27913;42.722;23.268;2022-10-31T07:41:07;18.30;;;8.65;;
42246;SDS011;27913;42.722;23.268;2022-10-31T07:43:32;22.75;;;9.30;;
42246;SDS011;27913;42.722;23.268;2022-10-31T07:45:58;22.35;;;9.57;;
42246;SDS011;27913;42.722;23.268;2022-10-31T07:48:23;17.83;;;9.38;;
42246;SDS011;27913;42.722;23.268;2022-10-31T07:50:49;17.85;;;8.70;;
42246;SDS011;27913;42.722;23.268;2022-10-31T07:53:14;19.70;;;9.07;;
42246;SDS011;27913;42.722;23.268;2022-10-31T07:55:40;19.02;;;8.75;;
42246;SDS011;27913;42.722;23.268;2022-10-31T07:58:10;17.67;;;8.00;;
42246;SDS011;27913;42.722;23.268;2022-10-31T08:03:07;23.63;;;8.20;;
42246;SDS011;27913;42.722;23.268;2022-10-31T08:05:36;19.35;;;8.18;;
42246;SDS011;27913;42.722;23.268;2022-10-31T08:08:03;17.05;;;6.95;;
42246;SDS011;27913;42.722;23.268;2022-10-31T08:10:29;13.85;;;6.45;;
42246;SDS011;27913;42.722;23.268;2022-10-31T08:13:03;16.63;;;7.38;;
42246;SDS011;27913;42.722;23.268;2022-10-31T08:15:30;15.68;;;6.75;;
42246;SDS011;27913;42.722;23.268;2022-10-31T08:17:56;18.48;;;7.60;;
42246;SDS011;27913;42.722;23.268;2022-10-31T08:20:21;13.65;;;7.00;;
42246;SDS011;27913;42.722;23.268;2022-10-31T08:22:56;17.08;;;7.75;;
42246;SDS011;27913;42.722;23.268;2022-10-31T08:25:23;16.65;;;7.53;;
42246;SDS011;27913;42.722;23.268;2022-10-31T08:27:52;15.13;;;7.53;;
42246;SDS011;27913;42.722;23.268;2022-10-31T08:30:19;18.63;;;8.73;;
42246;SDS011;27913;42.722;23.268;2022-10-31T08:32:46;22.20;;;8.52;;
42246;SDS011;27913;42.722;23.268;2022-10-31T08:35:12;16.98;;;7.53;;
42246;SDS011;27913;42.722;23.268;2022-10-31T08:37:38;14.30;;;7.18;;
42246;SDS011;27913;42.722;23.268;2022-10-31T08:40:03;13.77;;;7.05;;
42246;SDS011;27913;42.722;23.268;2022-10-31T08:42:30;17.90;;;7.60;;
42246;SDS011;27913;42.722;23.268;2022-10-31T08:44:55;14.88;;;6.95;;
42246;SDS011;27913;42.722;23.268;2022-10-31T08:47:21;15.98;;;6.55;;
42246;SDS011;27913;42.722;23.268;2022-10-31T08:49:46;15.50;;;7.00;;
42246;SDS011;27913;42.722;23.268;2022-10-31T08:52:12;13.10;;;6.55;;
42246;SDS011;27913;42.722;23.268;2022-10-31T08:54:39;13.10;;;6.28;;
42246;SDS011;27913;42.722;23.268;2022-10-31T08:57:05;16.98;;;6.10;;
42246;SDS011;27913;42.722;23.268;2022-10-31T08:59:30;13.68;;;5.80;;
42246;SDS011;27913;42.722;23.268;2022-10-31T09:01:56;13.45;;;5.90;;
42246;SDS011;27913;42.722;23.268;2022-10-31T09:04:22;11.77;;;5.80;;
42246;SDS011;27913;42.722;23.268;2022-10-31T09:06:47;12.75;;;5.97;;
42246;SDS011;27913;42.722;23.268;2022-10-31T09:09:13;14.88;;;5.97;;
42246;SDS011;27913;42.722;23.268;2022-10-31T09:11:38;11.20;;;5.38;;
42246;SDS011;27913;42.722;23.268;2022-10-31T09:14:04;12.27;;;5.20;;
42246;SDS011;27913;42.722;23.268;2022-10-31T09:16:29;11.88;;;5.30;;
42246;SDS011;27913;42.722;23.268;2022-10-31T09:18:55;11.82;;;5.65;;
42246;SDS011;27913;42.722;23.268;2022-10-31T09:21:20;12.40;;;6.35;;
42246;SDS011;27913;42.722;23.268;2022-10-31T09:23:46;13.27;;;5.50;;
42246;SDS011;27913;42.722;23.268;2022-10-31T09:26:11;13.82;;;5.18;;
42246;SDS011;27913;42.722;23.268;2022-10-31T09:28:39;21.83;;;5.38;;
42246;SDS011;27913;42.722;23.268;2022-10-31T09:31:05;13.07;;;5.25;;
42246;SDS011;27913;42.722;23.268;2022-10-31T09:33:30;12.00;;;5.30;;
42246;SDS011;27913;42.722;23.268;2022-10-31T09:35:57;9.15;;;4.72;;
42246;SDS011;27913;42.722;23.268;2022-10-31T09:38:23;9.82;;;4.78;;
42246;SDS011;27913;42.722;23.268;2022-10-31T09:41:01;11.52;;;5.97;;
42246;SDS011;27913;42.722;23.268;2022-10-31T09:57:15;7.80;;;3.72;;
42246;SDS011;27913;42.722;23.268;2022-10-31T09:59:46;11.05;;;4.07;;
42246;SDS011;27913;42.722;23.268;2022-10-31T10:02:22;10.98;;;3.42;;
42246;SDS011;27913;42.722;23.268;2022-10-31T10:05:11;8.20;;;3.75;;
42246;SDS011;27913;42.722;23.268;2022-10-31T10:13:29;6.72;;;3.10;;
42246;SDS011;27913;42.722;23.268;2022-10-31T10:16:02;8.00;;;3.45;;
42246;SDS011;27913;42.722;23.268;2022-10-31T10:18:38;10.25;;;3.70;;
42246;SDS011;27913;42.722;23.268;2022-10-31T10:27:23;9.00;;;3.28;;
42246;SDS011;27913;42.722;23.268;2022-10-31T10:30:01;8.35;;;3.45;;
42246;SDS011;27913;42.722;23.268;2022-10-31T10:32:33;8.57;;;3.05;;
42246;SDS011;27913;42.722;23.268;2022-10-31T10:35:19;12.60;;;3.13;;
42246;SDS011;27913;42.722;23.268;2022-10-31T10:40:17;9.52;;;3.13;;
42246;SDS011;27913;42.722;23.268;2022-10-31T10:42:45;8.20;;;2.58;;
42246;SDS011;27913;42.722;23.268;2022-10-31T10:45:39;8.25;;;2.03;;
42246;SDS011;27913;42.722;23.268;2022-10-31T10:48:31;8.07;;;2.70;;
42246;SDS011;27913;42.722;23.268;2022-10-31T10:57:22;8.07;;;2.42;;
42246;SDS011;27913;42.722;23.268;2022-10-31T10:59:54;14.73;;;2.50;;
42246;SDS011;27913;42.722;23.268;2022-10-31T11:02:24;7.05;;;1.80;;
42246;SDS011;27913;42.722;23.268;2022-10-31T11:04:51;6.25;;;2.30;;
42246;SDS011;27913;42.722;23.268;2022-10-31T11:07:19;7.72;;;2.60;;
42246;SDS011;27913;42.722;23.268;2022-10-31T11:09:45;8.75;;;2.38;;
42246;SDS011;27913;42.722;23.268;2022-10-31T11:14:46;7.30;;;2.38;;
42246;SDS011;27913;42.722;23.268;2022-10-31T11:17:34;9.40;;;2.33;;
42246;SDS011;27913;42.722;23.268;2022-10-31T11:20:06;6.28;;;2.40;;
42246;SDS011;27913;42.722;23.268;2022-10-31T11:22:59;5.65;;;1.90;;
42246;SDS011;27913;42.722;23.268;2022-10-31T11:25:49;7.28;;;2.42;;
42246;SDS011;27913;42.722;23.268;2022-10-31T11:28:20;9.02;;;2.85;;
42246;SDS011;27913;42.722;23.268;2022-10-31T11:30:50;5.32;;;2.25;;
42246;SDS011;27913;42.722;23.268;2022-10-31T11:33:26;6.88;;;2.28;;
42246;SDS011;27913;42.722;23.268;2022-10-31T11:35:55;6.90;;;2.05;;
42246;SDS011;27913;42.722;23.268;2022-10-31T11:38:23;5.78;;;1.73;;
42246;SDS011;27913;42.722;23.268;2022-10-31T11:40:56;8.63;;;2.35;;
42246;SDS011;27913;42.722;23.268;2022-10-31T11:43:24;6.13;;;2.28;;
42246;SDS011;27913;42.722;23.268;2022-10-31T11:45:51;4.85;;;1.98;;
42246;SDS011;27913;42.722;23.268;2022-10-31T11:48:21;5.70;;;2.05;;
42246;SDS011;27913;42.722;23.268;2022-10-31T11:50:54;5.05;;;1.92;;
42246;SDS011;27913;42.722;23.268;2022-10-31T11:53:32;3.90;;;2.00;;
42246;SDS011;27913;42.722;23.268;2022-10-31T11:56:14;6.18;;;2.25;;
42246;SDS011;27913;42.722;23.268;2022-10-31T11:58:41;6.97;;;2.60;;
42246;SDS011;27913;42.722;23.268;2022-10-31T12:01:20;5.32;;;1.90;;
42246;SDS011;27913;42.722;23.268;2022-10-31T12:03:54;10.40;;;2.38;;
42246;SDS011;27913;42.722;23.268;2022-10-31T12:06:38;7.90;;;2.13;;
42246;SDS011;27913;42.722;23.268;2022-10-31T12:09:13;7.20;;;2.47;;
42246;SDS011;27913;42.722;23.268;2022-10-31T12:22:29;4.57;;;2.08;;
42246;SDS011;27913;42.722;23.268;2022-10-31T12:25:27;6.63;;;2.40;;
42246;SDS011;27913;42.722;23.268;2022-10-31T12:33:47;8.07;;;2.22;;
42246;SDS011;27913;42.722;23.268;2022-10-31T12:39:12;6.93;;;2.58;;
42246;SDS011;27913;42.722;23.268;2022-10-31T12:50:26;8.45;;;2.67;;
42246;SDS011;27913;42.722;23.268;2022-10-31T12:58:33;5.70;;;2.33;;
42246;SDS011;27913;42.722;23.268;2022-10-31T13:01:30;6.47;;;2.25;;
42246;SDS011;27913;42.722;23.268;2022-10-31T13:04:05;8.07;;;2.28;;
42246;SDS011;27913;42.722;23.268;2022-10-31T13:07:28;6.15;;;1.95;;
42246;SDS011;27913;42.722;23.268;2022-10-31T13:10:47;5.18;;;2.00;;
42246;SDS011;27913;42.722;23.268;2022-10-31T13:12:58;5.60;;;1.80;;
42246;SDS011;27913;42.722;23.268;2022-10-31T13:15:31;4.45;;;1.70;;
42246;SDS011;27913;42.722;23.268;2022-10-31T13:18:09;8.60;;;2.33;;
42246;SDS011;27913;42.722;23.268;2022-10-31T13:20:39;6.05;;;2.05;;
42246;SDS011;27913;42.722;23.268;2022-10-31T13:25:46;7.38;;;2.30;;
42246;SDS011;27913;42.722;23.268;2022-10-31T13:28:23;8.10;;;2.17;;
42246;SDS011;27913;42.722;23.268;2022-10-31T13:30:49;5.50;;;2.20;;
42246;SDS011;27913;42.722;23.268;2022-10-31T13:33:27;6.72;;;2.35;;
42246;SDS011;27913;42.722;23.268;2022-10-31T13:36:19;8.48;;;2.50;;
42246;SDS011;27913;42.722;23.268;2022-10-31T13:38:59;8.60;;;1.98;;
42246;SDS011;27913;42.722;23.268;2022-10-31T13:41:53;10.25;;;1.85;;
42246;SDS011;27913;42.722;23.268;2022-10-31T13:44:27;4.78;;;1.80;;
42246;SDS011;27913;42.722;23.268;2022-10-31T13:46:55;5.05;;;1.58;;
42246;SDS011;27913;42.722;23.268;2022-10-31T13:51:49;5.28;;;1.92;;
42246;SDS011;27913;42.722;23.268;2022-10-31T13:56:48;7.70;;;1.40;;
42246;SDS011;27913;42.722;23.268;2022-10-31T13:59:20;3.40;;;1.05;;
42246;SDS011;27913;42.722;23.268;2022-10-31T14:02:00;7.03;;;1.40;;
42246;SDS011;27913;42.722;23.268;2022-10-31T14:04:38;5.95;;;0.77;;
42246;SDS011;27913;42.722;23.268;2022-10-31T14:07:12;7.35;;;1.27;;
42246;SDS011;27913;42.722;23.268;2022-10-31T14:15:14;6.45;;;1.38;;
42246;SDS011;27913;42.722;23.268;2022-10-31T14:22:40;6.57;;;1.27;;
42246;SDS011;27913;42.722;23.268;2022-10-31T14:27:55;6.95;;;1.48;;
42246;SDS011;27913;42.722;23.268;2022-10-31T14:30:23;9.05;;;1.23;;
42246;SDS011;27913;42.722;23.268;2022-10-31T14:33:00;4.90;;;1.20;;
42246;SDS011;27913;42.722;23.268;2022-10-31T14:35:45;7.72;;;0.95;;
42246;SDS011;27913;42.722;23.268;2022-10-31T14:38:31;16.58;;;1.23;;
42246;SDS011;27913;42.722;23.268;2022-10-31T14:47:12;3.92;;;1.00;;
42246;SDS011;27913;42.722;23.268;2022-10-31T14:52:29;8.05;;;1.73;;
42246;SDS011;27913;42.722;23.268;2022-10-31T14:54:56;9.30;;;1.90;;
42246;SDS011;27913;42.722;23.268;2022-10-31T14:57:25;8.73;;;1.60;;
42246;SDS011;27913;42.722;23.268;2022-10-31T14:59:55;8.93;;;1.58;;
42246;SDS011;27913;42.722;23.268;2022-10-31T15:02:33;9.45;;;2.03;;
42246;SDS011;27913;42.722;23.268;2022-10-31T15:05:10;8.18;;;1.92;;
42246;SDS011;27913;42.722;23.268;2022-10-31T15:07:36;12.98;;;3.33;;
42246;SDS011;27913;42.722;23.268;2022-10-31T15:13:15;17.30;;;4.38;;
42246;SDS011;27913;42.722;23.268;2022-10-31T15:15:44;11.27;;;3.72;;
42246;SDS011;27913;42.722;23.268;2022-10-31T15:18:17;15.95;;;4.50;;
42246;SDS011;27913;42.722;23.268;2022-10-31T15:20:46;13.00;;;3.95;;
42246;SDS011;27913;42.722;23.268;2022-10-31T15:23:25;11.63;;;2.75;;
42246;SDS011;27913;42.722;23.268;2022-10-31T15:25:59;21.50;;;4.88;;
42246;SDS011;27913;42.722;23.268;2022-10-31T15:28:26;11.90;;;4.53;;
42246;SDS011;27913;42.722;23.268;2022-10-31T15:30:55;18.13;;;3.95;;
42246;SDS011;27913;42.722;23.268;2022-10-31T15:33:26;6.07;;;2.67;;
42246;SDS011;27913;42.722;23.268;2022-10-31T15:36:04;11.68;;;2.97;;
42246;SDS011;27913;42.722;23.268;2022-10-31T15:38:30;11.25;;;3.40;;
42246;SDS011;27913;42.722;23.268;2022-10-31T15:41:06;16.45;;;4.45;;
42246;SDS011;27913;42.722;23.268;2022-10-31T15:43:44;11.02;;;4.47;;
42246;SDS011;27913;42.722;23.268;2022-10-31T15:46:10;17.25;;;4.55;;
42246;SDS011;27913;42.722;23.268;2022-10-31T15:48:36;11.57;;;3.60;;
42246;SDS011;27913;42.722;23.268;2022-10-31T15:51:03;12.10;;;3.78;;
42246;SDS011;27913;42.722;23.268;2022-10-31T15:55:59;13.43;;;5.03;;
42246;SDS011;27913;42.722;23.268;2022-10-31T15:58:27;13.43;;;4.50;;
42246;SDS011;27913;42.722;23.268;2022-10-31T16:01:02;10.48;;;4.05;;
42246;SDS011;27913;42.722;23.268;2022-10-31T16:03:30;18.10;;;4.53;;
42246;SDS011;27913;42.722;23.268;2022-10-31T16:05:58;18.17;;;4.68;;
42246;SDS011;27913;42.722;23.268;2022-10-31T16:13:40;10.90;;;3.55;;
42246;SDS011;27913;42.722;23.268;2022-10-31T16:16:17;16.92;;;4.15;;
42246;SDS011;27913;42.722;23.268;2022-10-31T16:18:45;15.98;;;4.90;;
42246;SDS011;27913;42.722;23.268;2022-10-31T16:21:11;10.18;;;3.83;;
42246;SDS011;27913;42.722;23.268;2022-10-31T16:23:38;13.32;;;3.42;;
42246;SDS011;27913;42.722;23.268;2022-10-31T16:26:09;10.68;;;3.22;;
42246;SDS011;27913;42.722;23.268;2022-10-31T16:28:49;14.63;;;2.95;;
42246;SDS011;27913;42.722;23.268;2022-10-31T16:31:24;17.95;;;3.30;;
42246;SDS011;27913;42.722;23.268;2022-10-31T16:34:09;13.15;;;3.45;;
42246;SDS011;27913;42.722;23.268;2022-10-31T16:36:39;15.32;;;3.83;;
42246;SDS011;27913;42.722;23.268;2022-10-31T16:39:05;12.82;;;3.85;;
42246;SDS011;27913;42.722;23.268;2022-10-31T16:41:31;8.63;;;3.67;;
42246;SDS011;27913;42.722;23.268;2022-10-31T16:44:01;19.65;;;3.90;;
42246;SDS011;27913;42.722;23.268;2022-10-31T16:46:28;13.55;;;4.43;;
42246;SDS011;27913;42.722;23.268;2022-10-31T16:48:54;11.63;;;4.20;;
42246;SDS011;27913;42.722;23.268;2022-10-31T16:51:19;16.13;;;4.43;;
42246;SDS011;27913;42.722;23.268;2022-10-31T16:53:45;17.27;;;4.50;;
42246;SDS011;27913;42.722;23.268;2022-10-31T16:56:15;11.77;;;4.43;;
42246;SDS011;27913;42.722;23.268;2022-10-31T16:58:48;16.25;;;4.55;;
42246;SDS011;27913;42.722;23.268;2022-10-31T17:01:14;17.25;;;5.15;;
42246;SDS011;27913;42.722;23.268;2022-10-31T17:03:41;13.15;;;4.28;;
42246;SDS011;27913;42.722;23.268;2022-10-31T17:06:09;13.15;;;3.97;;
42246;SDS011;27913;42.722;23.268;2022-10-31T17:08:37;16.48;;;5.35;;